sensor_id;sensor_type;location;lat;lon;timestamp;pressure;altitude;pressure_sealevel;temperature;humidity
8160;BME280;27404;52.398;9.646;2022-07-06T00:01:28;101577.72;;;14.06;94.87
8160;BME280;27404;52.398;9.646;2022-07-06T00:03:53;101584.50;;;14.03;94.81
8160;BME280;27404;52.398;9.646;2022-07-06T00:06:19;101578.38;;;13.89;95.25
8160;BME280;27404;52.398;9.646;2022-07-06T00:08:44;101573.81;;;13.83;95.66
8160;BME280;27404;52.398;9.646;2022-07-06T00:11:10;101576.41;;;13.78;96.30
8160;BME280;27404;52.398;9.646;2022-07-06T00:13:36;101574.38;;;13.73;96.73
8160;BME280;27404;52.398;9.646;2022-07-06T00:16:01;101563.16;;;13.75;97.76
8160;BME280;27404;52.398;9.646;2022-07-06T00:18:27;101565.06;;;13.74;98.17
8160;BME280;27404;52.398;9.646;2022-07-06T00:20:52;101571.88;;;13.72;98.70
8160;BME280;27404;52.398;9.646;2022-07-06T00:23:18;101575.06;;;13.69;99.40
8160;BME280;27404;52.398;9.646;2022-07-06T00:25:43;101568.38;;;13.65;99.74
8160;BME280;27404;52.398;9.646;2022-07-06T00:28:09;101580.53;;;13.57;100.00
8160;BME280;27404;52.398;9.646;2022-07-06T00:30:34;101575.59;;;13.47;100.00
8160;BME280;27404;52.398;9.646;2022-07-06T00:33:00;101576.28;;;13.42;100.00
8160;BME280;27404;52.398;9.646;2022-07-06T00:35:25;101570.16;;;13.40;100.00
8160;BME280;27404;52.398;9.646;2022-07-06T00:37:51;101567.59;;;13.45;100.00
8160;BME280;27404;52.398;9.646;2022-07-06T00:40:17;101568.19;;;13.47;100.00
8160;BME280;27404;52.398;9.646;2022-07-06T00:42:44;101561.88;;;13.47;100.00
8160;BME280;27404;52.398;9.646;2022-07-06T00:45:11;101562.47;;;13.49;100.00
8160;BME280;27404;52.398;9.646;2022-07-06T00:47:37;101568.59;;;13.51;100.00
8160;BME280;27404;52.398;9.646;2022-07-06T00:50:08;101569.91;;;13.60;100.00
8160;BME280;27404;52.398;9.646;2022-07-06T00:52:41;101567.53;;;13.64;100.00
8160;BME280;27404;52.398;9.646;2022-07-06T00:55:09;101575.06;;;13.69;100.00
8160;BME280;27404;52.398;9.646;2022-07-06T00:57:35;101576.53;;;13.71;100.00
8160;BME280;27404;52.398;9.646;2022-07-06T01:00:03;101576.53;;;13.71;100.00
8160;BME280;27404;52.398;9.646;2022-07-06T01:02:33;101577.13;;;13.73;100.00
8160;BME280;27404;52.398;9.646;2022-07-06T01:04:59;101577.75;;;13.75;100.00
8160;BME280;27404;52.398;9.646;2022-07-06T01:07:25;101567.34;;;13.77;100.00
8160;BME280;27404;52.398;9.646;2022-07-06T01:09:51;101569.25;;;13.77;99.78
8160;BME280;27404;52.398;9.646;2022-07-06T01:12:17;101573.06;;;13.76;99.58
8160;BME280;27404;52.398;9.646;2022-07-06T01:14:43;101571.19;;;13.76;99.47
8160;BME280;27404;52.398;9.646;2022-07-06T01:17:09;101565.69;;;13.76;99.62
8160;BME280;27404;52.398;9.646;2022-07-06T01:19:34;101565.81;;;13.82;100.00
8160;BME280;27404;52.398;9.646;2022-07-06T01:22:00;101568.31;;;13.83;100.00
8160;BME280;27404;52.398;9.646;2022-07-06T01:24:25;101575.03;;;13.87;99.80
8160;BME280;27404;52.398;9.646;2022-07-06T01:26:51;101569.16;;;13.84;100.00
8160;BME280;27404;52.398;9.646;2022-07-06T01:29:17;101579.91;;;13.85;100.00
8160;BME280;27404;52.398;9.646;2022-07-06T01:31:48;101574.06;;;13.82;100.00
8160;BME280;27404;52.398;9.646;2022-07-06T01:34:14;101580.84;;;13.79;100.00
8160;BME280;27404;52.398;9.646;2022-07-06T01:36:41;101579.63;;;13.75;100.00
8160;BME280;27404;52.398;9.646;2022-07-06T01:39:07;101575.59;;;13.77;100.00
8160;BME280;27404;52.398;9.646;2022-07-06T01:41:33;101573.06;;;13.76;99.75
8160;BME280;27404;52.398;9.646;2022-07-06T01:43:59;101569.13;;;13.72;99.93
8160;BME280;27404;52.398;9.646;2022-07-06T01:46:24;101572.09;;;13.70;100.00
8160;BME280;27404;52.398;9.646;2022-07-06T01:48:49;101568.28;;;13.71;99.90
8160;BME280;27404;52.398;9.646;2022-07-06T01:51:15;101564.19;;;13.62;100.00
8160;BME280;27404;52.398;9.646;2022-07-06T01:53:41;101566.09;;;13.61;100.00
8160;BME280;27404;52.398;9.646;2022-07-06T01:56:06;101573.66;;;13.66;100.00
8160;BME280;27404;52.398;9.646;2022-07-06T01:58:32;101577.69;;;13.63;100.00
8160;BME280;27404;52.398;9.646;2022-07-06T02:00:59;101566.84;;;13.69;99.87
8160;BME280;27404;52.398;9.646;2022-07-06T02:03:24;101564.81;;;13.64;100.00
8160;BME280;27404;52.398;9.646;2022-07-06T02:05:50;101565.63;;;13.65;100.00
8160;BME280;27404;52.398;9.646;2022-07-06T02:08:15;101562.72;;;13.59;100.00
8160;BME280;27404;52.398;9.646;2022-07-06T02:10:41;101569.09;;;13.60;100.00
8160;BME280;27404;52.398;9.646;2022-07-06T02:13:06;101567.75;;;13.62;100.00
8160;BME280;27404;52.398;9.646;2022-07-06T02:15:32;101566.56;;;13.58;100.00
8160;BME280;27404;52.398;9.646;2022-07-06T02:17:57;101565.47;;;13.59;100.00
8160;BME280;27404;52.398;9.646;2022-07-06T02:20:22;101560.94;;;13.53;100.00
8160;BME280;27404;52.398;9.646;2022-07-06T02:22:48;101569.03;;;13.48;100.00
8160;BME280;27404;52.398;9.646;2022-07-06T02:25:13;101566.91;;;13.50;100.00
8160;BME280;27404;52.398;9.646;2022-07-06T02:27:39;101571.78;;;13.48;100.00
8160;BME280;27404;52.398;9.646;2022-07-06T02:30:05;101572.25;;;13.45;100.00
8160;BME280;27404;52.398;9.646;2022-07-06T02:32:31;101566.75;;;13.45;100.00
8160;BME280;27404;52.398;9.646;2022-07-06T02:34:56;101573.31;;;13.44;100.00
8160;BME280;27404;52.398;9.646;2022-07-06T02:37:22;101570.78;;;13.42;100.00
8160;BME280;27404;52.398;9.646;2022-07-06T02:39:48;101572.72;;;13.42;100.00
8160;BME280;27404;52.398;9.646;2022-07-06T02:42:13;101570.63;;;13.37;100.00
8160;BME280;27404;52.398;9.646;2022-07-06T02:44:39;101574.44;;;13.36;100.00
8160;BME280;27404;52.398;9.646;2022-07-06T02:47:04;101570.00;;;13.35;100.00
8160;BME280;27404;52.398;9.646;2022-07-06T02:49:30;101571.06;;;13.34;100.00
8160;BME280;27404;52.398;9.646;2022-07-06T02:51:55;101573.59;;;13.36;100.00
8160;BME280;27404;52.398;9.646;2022-07-06T02:54:21;101576.81;;;13.32;100.00
8160;BME280;27404;52.398;9.646;2022-07-06T02:56:46;101576.81;;;13.32;100.00
8160;BME280;27404;52.398;9.646;2022-07-06T02:59:16;101576.22;;;13.30;100.00
8160;BME280;27404;52.398;9.646;2022-07-06T03:01:42;101567.66;;;13.39;100.00
8160;BME280;27404;52.398;9.646;2022-07-06T03:04:07;101579.09;;;13.36;100.00
8160;BME280;27404;52.398;9.646;2022-07-06T03:06:33;101572.28;;;13.38;100.00
8160;BME280;27404;52.398;9.646;2022-07-06T03:08:58;101575.50;;;13.35;100.00
8160;BME280;27404;52.398;9.646;2022-07-06T03:11:23;101573.81;;;13.34;100.00
8160;BME280;27404;52.398;9.646;2022-07-06T03:13:49;101580.38;;;13.33;100.00
8160;BME280;27404;52.398;9.646;2022-07-06T03:16:14;101573.22;;;13.32;100.00
8160;BME280;27404;52.398;9.646;2022-07-06T03:18:40;101570.56;;;13.25;100.00
8160;BME280;27404;52.398;9.646;2022-07-06T03:21:05;101578.19;;;13.23;100.00
8160;BME280;27404;52.398;9.646;2022-07-06T03:23:31;101573.56;;;13.24;100.00
8160;BME280;27404;52.398;9.646;2022-07-06T03:25:56;101580.03;;;13.29;100.00
8160;BME280;27404;52.398;9.646;2022-07-06T03:28:22;101579.41;;;13.27;100.00
8160;BME280;27404;52.398;9.646;2022-07-06T03:30:47;101582.16;;;13.27;100.00
8160;BME280;27404;52.398;9.646;2022-07-06T03:33:13;101587.28;;;13.24;100.00
8160;BME280;27404;52.398;9.646;2022-07-06T03:35:38;101582.38;;;13.26;100.00
8160;BME280;27404;52.398;9.646;2022-07-06T03:38:04;101585.97;;;13.26;100.00
8160;BME280;27404;52.398;9.646;2022-07-06T03:40:29;101585.97;;;13.26;100.00
8160;BME280;27404;52.398;9.646;2022-07-06T03:42:54;101583.84;;;13.28;100.00
8160;BME280;27404;52.398;9.646;2022-07-06T03:45:20;101577.19;;;13.36;100.00
8160;BME280;27404;52.398;9.646;2022-07-06T03:47:45;101582.00;;;13.41;100.00
8160;BME280;27404;52.398;9.646;2022-07-06T03:50:11;101579.03;;;13.42;100.00
8160;BME280;27404;52.398;9.646;2022-07-06T03:52:36;101577.97;;;13.43;100.00
8160;BME280;27404;52.398;9.646;2022-07-06T03:55:10;101581.09;;;13.47;100.00
8160;BME280;27404;52.398;9.646;2022-07-06T03:57:37;101569.44;;;13.63;100.00
8160;BME280;27404;52.398;9.646;2022-07-06T04:00:04;101576.84;;;13.63;100.00
8160;BME280;27404;52.398;9.646;2022-07-06T04:02:30;101586.44;;;13.72;100.00
8160;BME280;27404;52.398;9.646;2022-07-06T04:04:55;101586.44;;;13.72;100.00
8160;BME280;27404;52.398;9.646;2022-07-06T04:07:21;101595.66;;;13.78;100.00
8160;BME280;27404;52.398;9.646;2022-07-06T04:09:47;101598.47;;;13.90;100.00
8160;BME280;27404;52.398;9.646;2022-07-06T04:12:12;101592.72;;;13.91;100.00
8160;BME280;27404;52.398;9.646;2022-07-06T04:14:37;101592.88;;;14.09;100.00
8160;BME280;27404;52.398;9.646;2022-07-06T04:17:03;101591.34;;;14.25;100.00
8160;BME280;27404;52.398;9.646;2022-07-06T04:19:48;101596.88;;;14.48;100.00
8160;BME280;27404;52.398;9.646;2022-07-06T04:22:14;101596.19;;;14.77;98.86
8160;BME280;27404;52.398;9.646;2022-07-06T04:24:39;101604.53;;;15.06;96.34
8160;BME280;27404;52.398;9.646;2022-07-06T04:27:05;101598.78;;;15.19;95.05
8160;BME280;27404;52.398;9.646;2022-07-06T04:29:30;101594.03;;;15.44;93.76
8160;BME280;27404;52.398;9.646;2022-07-06T04:31:56;101609.66;;;16.64;88.48
8160;BME280;27404;52.398;9.646;2022-07-06T04:34:22;101611.69;;;17.08;82.31
8160;BME280;27404;52.398;9.646;2022-07-06T04:36:47;101602.44;;;16.97;82.24
8160;BME280;27404;52.398;9.646;2022-07-06T04:39:12;101600.97;;;16.55;83.55
8160;BME280;27404;52.398;9.646;2022-07-06T04:41:38;101607.09;;;16.40;85.11
8160;BME280;27404;52.398;9.646;2022-07-06T04:44:03;101603.81;;;16.26;85.79
8160;BME280;27404;52.398;9.646;2022-07-06T04:46:29;101607.81;;;16.19;85.70
8160;BME280;27404;52.398;9.646;2022-07-06T04:48:54;101602.41;;;16.24;86.79
8160;BME280;27404;52.398;9.646;2022-07-06T04:51:20;101609.50;;;16.20;87.02
8160;BME280;27404;52.398;9.646;2022-07-06T04:53:45;101609.78;;;15.89;88.36
8160;BME280;27404;52.398;9.646;2022-07-06T04:56:11;101602.44;;;15.95;89.17
8160;BME280;27404;52.398;9.646;2022-07-06T04:58:36;101603.63;;;15.99;89.35
8160;BME280;27404;52.398;9.646;2022-07-06T05:01:02;101592.84;;;15.97;88.57
8160;BME280;27404;52.398;9.646;2022-07-06T05:03:27;101592.19;;;16.07;87.82
8160;BME280;27404;52.398;9.646;2022-07-06T05:05:53;101593.84;;;16.08;87.42
8160;BME280;27404;52.398;9.646;2022-07-06T05:08:18;101598.28;;;16.09;87.79
8160;BME280;27404;52.398;9.646;2022-07-06T05:10:43;101600.03;;;15.98;88.85
8160;BME280;27404;52.398;9.646;2022-07-06T05:13:09;101600.41;;;16.19;87.98
8160;BME280;27404;52.398;9.646;2022-07-06T05:15:34;101603.06;;;16.14;88.32
8160;BME280;27404;52.398;9.646;2022-07-06T05:18:00;101595.78;;;16.08;88.24
8160;BME280;27404;52.398;9.646;2022-07-06T05:20:25;101598.09;;;15.99;88.85
8160;BME280;27404;52.398;9.646;2022-07-06T05:22:50;101595.63;;;16.14;88.35
8160;BME280;27404;52.398;9.646;2022-07-06T05:25:16;101605.47;;;16.10;89.09
8160;BME280;27404;52.398;9.646;2022-07-06T05:27:41;101607.63;;;15.91;89.26
8160;BME280;27404;52.398;9.646;2022-07-06T05:30:07;101617.41;;;15.99;89.44
8160;BME280;27404;52.398;9.646;2022-07-06T05:32:33;101607.22;;;15.99;90.04
8160;BME280;27404;52.398;9.646;2022-07-06T05:34:58;101602.22;;;15.96;89.84
8160;BME280;27404;52.398;9.646;2022-07-06T05:37:24;101616.59;;;15.98;89.56
8160;BME280;27404;52.398;9.646;2022-07-06T05:39:49;101606.63;;;15.97;89.60
8160;BME280;27404;52.398;9.646;2022-07-06T05:42:15;101620.75;;;16.01;90.06
8160;BME280;27404;52.398;9.646;2022-07-06T05:44:41;101608.63;;;16.02;90.49
8160;BME280;27404;52.398;9.646;2022-07-06T05:47:07;101610.91;;;16.05;89.09
8160;BME280;27404;52.398;9.646;2022-07-06T05:49:50;101611.34;;;16.14;88.29
8160;BME280;27404;52.398;9.646;2022-07-06T05:52:34;101616.88;;;16.14;88.58
8160;BME280;27404;52.398;9.646;2022-07-06T05:55:00;101617.38;;;16.28;86.84
8160;BME280;27404;52.398;9.646;2022-07-06T05:57:25;101615.59;;;16.22;86.93
8160;BME280;27404;52.398;9.646;2022-07-06T05:59:51;101614.19;;;16.36;86.23
8160;BME280;27404;52.398;9.646;2022-07-06T06:02:17;101614.00;;;16.43;85.36
8160;BME280;27404;52.398;9.646;2022-07-06T06:04:42;101615.03;;;16.54;83.76
8160;BME280;27404;52.398;9.646;2022-07-06T06:07:08;101614.94;;;16.66;82.91
8160;BME280;27404;52.398;9.646;2022-07-06T06:09:33;101616.69;;;16.72;82.45
8160;BME280;27404;52.398;9.646;2022-07-06T06:11:58;101625.69;;;16.84;81.28
8160;BME280;27404;52.398;9.646;2022-07-06T06:14:24;101619.53;;;16.77;81.08
8160;BME280;27404;52.398;9.646;2022-07-06T06:16:49;101624.09;;;16.88;81.31
8160;BME280;27404;52.398;9.646;2022-07-06T06:19:15;101628.28;;;16.91;80.99
8160;BME280;27404;52.398;9.646;2022-07-06T06:21:40;101634.56;;;16.69;81.57
8160;BME280;27404;52.398;9.646;2022-07-06T06:24:06;101639.59;;;16.72;82.75
8160;BME280;27404;52.398;9.646;2022-07-06T06:26:32;101635.44;;;16.70;81.63
8160;BME280;27404;52.398;9.646;2022-07-06T06:28:57;101628.16;;;16.64;82.56
8160;BME280;27404;52.398;9.646;2022-07-06T06:31:23;101627.72;;;16.72;82.69
8160;BME280;27404;52.398;9.646;2022-07-06T06:33:48;101633.72;;;16.86;81.60
8160;BME280;27404;52.398;9.646;2022-07-06T06:36:18;101626.28;;;16.86;80.60
8160;BME280;27404;52.398;9.646;2022-07-06T06:38:43;101629.88;;;16.87;78.85
8160;BME280;27404;52.398;9.646;2022-07-06T06:41:09;101630.63;;;16.99;78.92
8160;BME280;27404;52.398;9.646;2022-07-06T06:43:34;101633.97;;;17.01;78.15
8160;BME280;27404;52.398;9.646;2022-07-06T06:46:00;101643.75;;;17.09;78.11
8160;BME280;27404;52.398;9.646;2022-07-06T06:48:25;101641.97;;;17.20;76.06
8160;BME280;27404;52.398;9.646;2022-07-06T06:50:50;101633.16;;;17.23;75.87
8160;BME280;27404;52.398;9.646;2022-07-06T06:53:16;101641.25;;;17.30;76.19
8160;BME280;27404;52.398;9.646;2022-07-06T06:55:41;101645.63;;;17.26;73.86
8160;BME280;27404;52.398;9.646;2022-07-06T06:58:07;101649.19;;;17.21;74.10
8160;BME280;27404;52.398;9.646;2022-07-06T07:00:33;101656.75;;;17.31;74.87
8160;BME280;27404;52.398;9.646;2022-07-06T07:02:58;101657.41;;;17.38;72.63
8160;BME280;27404;52.398;9.646;2022-07-06T07:05:24;101652.44;;;17.40;71.98
8160;BME280;27404;52.398;9.646;2022-07-06T07:07:50;101659.31;;;17.38;71.81
8160;BME280;27404;52.398;9.646;2022-07-06T07:10:15;101659.13;;;17.67;71.14
8160;BME280;27404;52.398;9.646;2022-07-06T07:12:46;101662.84;;;17.33;72.11
8160;BME280;27404;52.398;9.646;2022-07-06T07:15:12;101665.75;;;17.43;71.67
8160;BME280;27404;52.398;9.646;2022-07-06T07:17:38;101670.06;;;17.56;68.98
8160;BME280;27404;52.398;9.646;2022-07-06T07:20:04;101671.03;;;17.45;69.95
8160;BME280;27404;52.398;9.646;2022-07-06T07:22:29;101679.44;;;17.55;68.04
8160;BME280;27404;52.398;9.646;2022-07-06T07:24:55;101677.19;;;17.74;67.34
8160;BME280;27404;52.398;9.646;2022-07-06T07:27:20;101683.28;;;17.76;65.95
8160;BME280;27404;52.398;9.646;2022-07-06T07:29:46;101679.88;;;17.69;66.32
8160;BME280;27404;52.398;9.646;2022-07-06T07:32:11;101678.16;;;17.63;66.57
8160;BME280;27404;52.398;9.646;2022-07-06T07:34:36;101687.34;;;17.69;64.91
8160;BME280;27404;52.398;9.646;2022-07-06T07:37:02;101689.03;;;17.70;66.67
8160;BME280;27404;52.398;9.646;2022-07-06T07:39:28;101687.47;;;17.79;65.62
8160;BME280;27404;52.398;9.646;2022-07-06T07:41:53;101689.66;;;17.77;65.28
8160;BME280;27404;52.398;9.646;2022-07-06T07:44:19;101691.41;;;17.83;65.23
8160;BME280;27404;52.398;9.646;2022-07-06T07:46:44;101691.41;;;17.83;63.98
8160;BME280;27404;52.398;9.646;2022-07-06T07:49:10;101696.16;;;17.88;64.23
8160;BME280;27404;52.398;9.646;2022-07-06T07:51:35;101681.84;;;17.96;63.32
8160;BME280;27404;52.398;9.646;2022-07-06T07:54:00;101687.06;;;18.15;62.34
8160;BME280;27404;52.398;9.646;2022-07-06T07:56:26;101694.63;;;18.25;62.31
8160;BME280;27404;52.398;9.646;2022-07-06T07:58:51;101688.66;;;18.38;62.12
8160;BME280;27404;52.398;9.646;2022-07-06T08:01:17;101688.22;;;18.19;61.04
8160;BME280;27404;52.398;9.646;2022-07-06T08:03:42;101686.38;;;18.62;60.11
8160;BME280;27404;52.398;9.646;2022-07-06T08:06:08;101689.47;;;18.71;58.72
8160;BME280;27404;52.398;9.646;2022-07-06T08:08:33;101686.00;;;18.86;56.81
8160;BME280;27404;52.398;9.646;2022-07-06T08:10:59;101690.34;;;19.09;55.89
8160;BME280;27404;52.398;9.646;2022-07-06T08:13:24;101682.84;;;19.63;55.00
8160;BME280;27404;52.398;9.646;2022-07-06T08:15:50;101683.53;;;20.07;52.50
8160;BME280;27404;52.398;9.646;2022-07-06T08:18:15;101684.72;;;20.32;51.03
8160;BME280;27404;52.398;9.646;2022-07-06T08:20:40;101692.75;;;20.49;48.69
8160;BME280;27404;52.398;9.646;2022-07-06T08:23:06;101688.88;;;20.55;48.80
8160;BME280;27404;52.398;9.646;2022-07-06T08:25:31;101684.72;;;20.52;47.27
8160;BME280;27404;52.398;9.646;2022-07-06T08:27:57;101687.50;;;20.52;47.65
8160;BME280;27404;52.398;9.646;2022-07-06T08:30:23;101682.19;;;20.15;48.92
8160;BME280;27404;52.398;9.646;2022-07-06T08:32:48;101688.28;;;20.11;48.73
8160;BME280;27404;52.398;9.646;2022-07-06T08:35:14;101676.91;;;20.23;48.22
8160;BME280;27404;52.398;9.646;2022-07-06T08:37:39;101684.13;;;20.61;47.80
8160;BME280;27404;52.398;9.646;2022-07-06T08:40:06;101679.41;;;20.92;46.62
8160;BME280;27404;52.398;9.646;2022-07-06T08:42:33;101684.97;;;21.03;46.65
8160;BME280;27404;52.398;9.646;2022-07-06T08:45:00;101674.94;;;21.17;44.62
8160;BME280;27404;52.398;9.646;2022-07-06T08:47:27;101671.28;;;21.22;45.23
8160;BME280;27404;52.398;9.646;2022-07-06T08:49:53;101679.16;;;20.94;44.71
8160;BME280;27404;52.398;9.646;2022-07-06T08:52:19;101669.69;;;20.69;46.19
8160;BME280;27404;52.398;9.646;2022-07-06T08:54:45;101666.09;;;20.89;45.07
8160;BME280;27404;52.398;9.646;2022-07-06T08:57:10;101669.72;;;20.79;44.48
8160;BME280;27404;52.398;9.646;2022-07-06T08:59:36;101670.53;;;20.95;45.58
8160;BME280;27404;52.398;9.646;2022-07-06T09:02:04;101662.22;;;20.85;46.01
8160;BME280;27404;52.398;9.646;2022-07-06T09:04:29;101663.81;;;21.12;45.31
8160;BME280;27404;52.398;9.646;2022-07-06T09:06:57;101661.41;;;21.60;43.57
8160;BME280;27404;52.398;9.646;2022-07-06T09:09:23;101666.72;;;21.57;41.99
8160;BME280;27404;52.398;9.646;2022-07-06T09:11:49;101665.59;;;21.63;42.24
8160;BME280;27404;52.398;9.646;2022-07-06T09:14:15;101672.69;;;21.24;42.71
8160;BME280;27404;52.398;9.646;2022-07-06T09:16:41;101665.28;;;20.52;42.20
8160;BME280;27404;52.398;9.646;2022-07-06T09:19:10;101671.91;;;20.62;42.69
8160;BME280;27404;52.398;9.646;2022-07-06T09:21:36;101663.88;;;20.50;42.78
8160;BME280;27404;52.398;9.646;2022-07-06T09:24:06;101678.03;;;20.27;42.61
8160;BME280;27404;52.398;9.646;2022-07-06T09:26:31;101678.84;;;20.12;43.54
8160;BME280;27404;52.398;9.646;2022-07-06T09:28:57;101677.75;;;20.34;43.14
8160;BME280;27404;52.398;9.646;2022-07-06T09:31:24;101683.59;;;20.43;43.39
8160;BME280;27404;52.398;9.646;2022-07-06T09:34:00;101680.47;;;19.93;42.95
8160;BME280;27404;52.398;9.646;2022-07-06T09:36:56;101676.38;;;20.42;41.25
8160;BME280;27404;52.398;9.646;2022-07-06T09:39:26;101679.97;;;20.42;41.90
8160;BME280;27404;52.398;9.646;2022-07-06T09:41:54;101679.69;;;20.54;42.03
8160;BME280;27404;52.398;9.646;2022-07-06T09:44:30;101676.34;;;20.63;41.12
8160;BME280;27404;52.398;9.646;2022-07-06T09:47:00;101667.72;;;21.00;40.92
8160;BME280;27404;52.398;9.646;2022-07-06T09:49:26;101671.59;;;21.10;41.13
8160;BME280;27404;52.398;9.646;2022-07-06T09:51:54;101676.28;;;21.25;41.71
8160;BME280;27404;52.398;9.646;2022-07-06T09:54:20;101674.63;;;21.24;39.91
8160;BME280;27404;52.398;9.646;2022-07-06T09:56:48;101671.78;;;21.44;38.83
8160;BME280;27404;52.398;9.646;2022-07-06T09:59:19;101665.22;;;21.80;38.26
8160;BME280;27404;52.398;9.646;2022-07-06T10:01:46;101675.88;;;22.13;36.70
8160;BME280;27404;52.398;9.646;2022-07-06T10:04:13;101664.38;;;21.85;37.77
8160;BME280;27404;52.398;9.646;2022-07-06T10:06:40;101669.50;;;22.12;36.69
8160;BME280;27404;52.398;9.646;2022-07-06T10:09:07;101665.06;;;22.51;36.40
8160;BME280;27404;52.398;9.646;2022-07-06T10:11:54;101679.09;;;22.30;36.80
8160;BME280;27404;52.398;9.646;2022-07-06T10:14:22;101675.09;;;22.07;37.34
8160;BME280;27404;52.398;9.646;2022-07-06T10:16:48;101671.69;;;21.70;37.50
8160;BME280;27404;52.398;9.646;2022-07-06T10:19:15;101670.94;;;21.44;37.37
8160;BME280;27404;52.398;9.646;2022-07-06T10:21:41;101671.03;;;21.18;38.31
8160;BME280;27404;52.398;9.646;2022-07-06T10:24:09;101673.03;;;20.76;38.22
8160;BME280;27404;52.398;9.646;2022-07-06T10:26:35;101678.31;;;20.62;38.35
8160;BME280;27404;52.398;9.646;2022-07-06T10:29:05;101678.03;;;20.22;38.37
8160;BME280;27404;52.398;9.646;2022-07-06T10:31:32;101666.38;;;20.36;39.27
8160;BME280;27404;52.398;9.646;2022-07-06T10:34:03;101673.59;;;20.26;38.97
8160;BME280;27404;52.398;9.646;2022-07-06T10:36:30;101669.69;;;20.12;38.87
8160;BME280;27404;52.398;9.646;2022-07-06T10:38:56;101676.63;;;20.04;39.59
8160;BME280;27404;52.398;9.646;2022-07-06T10:41:32;101682.75;;;20.11;39.44
8160;BME280;27404;52.398;9.646;2022-07-06T10:44:15;101668.03;;;20.21;39.61
8160;BME280;27404;52.398;9.646;2022-07-06T10:46:41;101668.28;;;20.92;39.74
8160;BME280;27404;52.398;9.646;2022-07-06T10:49:15;101660.63;;;21.50;37.18
8160;BME280;27404;52.398;9.646;2022-07-06T10:51:41;101670.31;;;22.13;36.92
8160;BME280;27404;52.398;9.646;2022-07-06T10:54:09;101671.06;;;22.63;35.78
8160;BME280;27404;52.398;9.646;2022-07-06T10:56:44;101670.81;;;22.89;34.88
8160;BME280;27404;52.398;9.646;2022-07-06T10:59:22;101665.47;;;22.93;35.17
8160;BME280;27404;52.398;9.646;2022-07-06T11:02:12;101656.44;;;22.42;34.56
8160;BME280;27404;52.398;9.646;2022-07-06T11:04:39;101670.13;;;21.99;35.61
8160;BME280;27404;52.398;9.646;2022-07-06T11:07:08;101647.88;;;21.38;36.10
8160;BME280;27404;52.398;9.646;2022-07-06T11:09:35;101653.78;;;21.21;36.45
8160;BME280;27404;52.398;9.646;2022-07-06T11:12:11;101650.44;;;21.19;37.64
8160;BME280;27404;52.398;9.646;2022-07-06T11:14:37;101651.34;;;20.94;37.38
8160;BME280;27404;52.398;9.646;2022-07-06T11:17:04;101649.97;;;20.70;37.94
8160;BME280;27404;52.398;9.646;2022-07-06T11:19:30;101657.22;;;20.61;38.04
8160;BME280;27404;52.398;9.646;2022-07-06T11:22:07;101650.53;;;20.57;38.12
8160;BME280;27404;52.398;9.646;2022-07-06T11:24:35;101654.41;;;20.04;38.84
8160;BME280;27404;52.398;9.646;2022-07-06T11:27:01;101656.28;;;19.78;39.59
8160;BME280;27404;52.398;9.646;2022-07-06T11:29:28;101651.25;;;19.75;39.56
8160;BME280;27404;52.398;9.646;2022-07-06T11:31:58;101650.94;;;19.66;39.90
8160;BME280;27404;52.398;9.646;2022-07-06T11:34:30;101649.88;;;19.77;39.57
8160;BME280;27404;52.398;9.646;2022-07-06T11:37:05;101646.00;;;19.78;39.80
8160;BME280;27404;52.398;9.646;2022-07-06T11:39:34;101652.41;;;19.84;40.08
8160;BME280;27404;52.398;9.646;2022-07-06T11:42:01;101651.22;;;19.59;40.13
8160;BME280;27404;52.398;9.646;2022-07-06T11:44:27;101644.75;;;19.38;40.67
8160;BME280;27404;52.398;9.646;2022-07-06T11:46:53;101652.28;;;19.48;41.42
8160;BME280;27404;52.398;9.646;2022-07-06T11:49:21;101649.13;;;19.23;42.36
8160;BME280;27404;52.398;9.646;2022-07-06T11:51:47;101653.06;;;18.90;42.69
8160;BME280;27404;52.398;9.646;2022-07-06T11:54:20;101654.03;;;18.73;43.01
8160;BME280;27404;52.398;9.646;2022-07-06T11:57:04;101647.13;;;18.71;43.83
8160;BME280;27404;52.398;9.646;2022-07-06T11:59:32;101647.75;;;18.83;43.31
8160;BME280;27404;52.398;9.646;2022-07-06T12:02:01;101644.63;;;19.12;42.93
8160;BME280;27404;52.398;9.646;2022-07-06T12:04:28;101639.78;;;19.40;42.48
8160;BME280;27404;52.398;9.646;2022-07-06T12:06:55;101635.97;;;19.67;42.09
8160;BME280;27404;52.398;9.646;2022-07-06T12:09:20;101632.75;;;20.27;40.58
8160;BME280;27404;52.398;9.646;2022-07-06T12:11:47;101631.09;;;20.78;40.75
8160;BME280;27404;52.398;9.646;2022-07-06T12:14:16;101636.00;;;21.17;39.29
8160;BME280;27404;52.398;9.646;2022-07-06T12:16:42;101637.47;;;21.65;38.99
8160;BME280;27404;52.398;9.646;2022-07-06T12:19:08;101630.69;;;21.86;37.70
8160;BME280;27404;52.398;9.646;2022-07-06T12:21:34;101620.50;;;21.61;37.38
8160;BME280;27404;52.398;9.646;2022-07-06T12:24:00;101637.91;;;21.87;37.96
8160;BME280;27404;52.398;9.646;2022-07-06T12:26:28;101632.09;;;21.84;37.80
8160;BME280;27404;52.398;9.646;2022-07-06T12:29:11;101625.41;;;21.24;37.96
8160;BME280;27404;52.398;9.646;2022-07-06T12:31:43;101634.25;;;21.37;38.40
8160;BME280;27404;52.398;9.646;2022-07-06T12:34:18;101636.50;;;21.29;38.60
8160;BME280;27404;52.398;9.646;2022-07-06T12:39:12;101623.50;;;21.20;38.22
8160;BME280;27404;52.398;9.646;2022-07-06T12:41:44;101616.50;;;21.22;38.85
8160;BME280;27404;52.398;9.646;2022-07-06T12:44:11;101614.19;;;21.45;38.79
8160;BME280;27404;52.398;9.646;2022-07-06T12:46:41;101614.41;;;21.59;36.74
8160;BME280;27404;52.398;9.646;2022-07-06T12:49:18;101610.75;;;22.09;37.07
8160;BME280;27404;52.398;9.646;2022-07-06T12:54:32;101607.00;;;22.24;35.61
8160;BME280;27404;52.398;9.646;2022-07-06T12:57:05;101614.09;;;22.45;35.84
8160;BME280;27404;52.398;9.646;2022-07-06T12:59:33;101615.69;;;22.81;34.85
8160;BME280;27404;52.398;9.646;2022-07-06T13:01:59;101613.06;;;22.66;34.82